createdAt,value
2022-08-05T00:01:55.983Z,5.37
2022-08-05T00:04:26.850Z,6.08
2022-08-05T00:06:56.211Z,5.65
2022-08-05T00:09:25.478Z,5.47
2022-08-05T00:11:59.949Z,5.60
2022-08-05T00:14:31.427Z,5.35
2022-08-05T00:16:58.987Z,5.70
2022-08-05T00:19:33.135Z,5.58
2022-08-05T00:22:01.380Z,5.47
2022-08-05T00:24:31.522Z,5.72
2022-08-05T00:27:01.667Z,5.47
2022-08-05T00:29:37.736Z,5.60
2022-08-05T00:32:12.937Z,5.60
2022-08-05T00:34:54.674Z,5.97
2022-08-05T00:37:11.542Z,6.00
2022-08-05T00:39:41.730Z,6.08
2022-08-05T00:42:09.099Z,5.90
2022-08-05T00:44:38.389Z,6.20
2022-08-05T00:47:07.859Z,6.50
2022-08-05T00:49:51.086Z,6.25
2022-08-05T00:52:09.787Z,6.20
2022-08-05T00:54:40.763Z,6.65
2022-08-05T00:57:11.934Z,6.22
2022-08-05T00:59:44.324Z,6.50
2022-08-05T01:02:12.586Z,6.00
2022-08-05T01:04:43.540Z,6.83
2022-08-05T01:07:23.495Z,6.37
2022-08-05T01:09:44.029Z,6.75
2022-08-05T01:12:18.660Z,6.90
2022-08-05T01:14:54.669Z,7.12
2022-08-05T01:17:30.474Z,7.00
2022-08-05T01:20:20.368Z,6.78
2022-08-05T01:23:14.930Z,6.60
2022-08-05T01:25:56.539Z,6.47
2022-08-05T01:28:34.985Z,8.18
2022-08-05T01:31:07.463Z,7.67
2022-08-05T01:33:49.175Z,6.60
2022-08-05T01:36:18.470Z,6.65
2022-08-05T01:38:50.019Z,7.00
2022-08-05T01:41:22.247Z,6.37
2022-08-05T01:43:55.128Z,6.85
2022-08-05T01:46:41.346Z,6.83
2022-08-05T01:48:59.019Z,7.40
2022-08-05T01:51:30.104Z,6.55
2022-08-05T01:54:02.152Z,7.33
2022-08-05T01:58:11.542Z,6.53
2022-08-05T01:59:07.704Z,6.95
2022-08-05T02:01:40.311Z,6.97
2022-08-05T02:04:10.846Z,7.05
2022-08-05T02:06:40.586Z,6.90
2022-08-05T02:09:11.532Z,7.40
2022-08-05T02:11:58.025Z,7.50
2022-08-05T02:14:35.750Z,7.67
2022-08-05T02:17:17.029Z,6.78
2022-08-05T02:19:49.299Z,7.12
2022-08-05T02:22:25.612Z,7.47
2022-08-05T02:25:00.152Z,7.42
2022-08-05T02:27:58.532Z,7.55
2022-08-05T02:30:02.853Z,7.67
2022-08-05T02:32:34.054Z,7.47
2022-08-05T02:35:13.766Z,7.65
2022-08-05T02:37:38.461Z,7.70
2022-08-05T02:40:09.604Z,7.50
2022-08-05T02:42:40.529Z,6.83
2022-08-05T02:45:11.108Z,6.72
2022-08-05T02:48:06.769Z,6.60
2022-08-05T02:50:13.910Z,6.30
2022-08-05T02:52:45.858Z,6.00
2022-08-05T02:55:17.699Z,5.92
2022-08-05T02:58:11.605Z,6.12
2022-08-05T03:00:18.463Z,5.90
2022-08-05T03:02:48.822Z,6.40
2022-08-05T03:05:21.913Z,6.53
2022-08-05T03:08:01.712Z,6.33
2022-08-05T03:10:21.950Z,5.83
2022-08-05T03:12:52.821Z,6.08
2022-08-05T03:15:23.977Z,6.00
2022-08-05T03:17:55.986Z,6.67
2022-08-05T03:20:26.647Z,6.03
2022-08-05T03:22:57.656Z,5.97
2022-08-05T03:25:33.176Z,5.55
2022-08-05T03:28:00.607Z,5.80
2022-08-05T03:30:33.985Z,5.90
2022-08-05T03:33:05.700Z,5.40
2022-08-05T03:35:40.961Z,5.05
2022-08-05T03:38:06.759Z,5.75
2022-08-05T03:40:36.163Z,5.50
2022-08-05T03:43:15.968Z,6.03
2022-08-05T03:45:58.000Z,5.08
2022-08-05T03:48:09.154Z,6.22
2022-08-05T03:50:47.406Z,5.87
2022-08-05T03:55:53.544Z,5.80
2022-08-05T03:56:10.423Z,5.40
2022-08-05T03:58:32.265Z,5.70
2022-08-05T04:01:04.083Z,5.90
2022-08-05T04:03:38.135Z,6.20
2022-08-05T04:06:08.700Z,6.00
2022-08-05T04:08:39.202Z,6.03
2022-08-05T04:11:09.906Z,6.42
2022-08-05T04:13:49.837Z,6.95
2022-08-05T04:16:14.854Z,6.67
2022-08-05T04:18:47.582Z,6.40
2022-08-05T04:22:04.957Z,6.62
2022-08-05T04:24:05.147Z,6.65
2022-08-05T04:26:20.370Z,6.28
2022-08-05T04:28:51.236Z,6.40
2022-08-05T04:31:21.421Z,6.00
2022-08-05T04:34:17.569Z,6.10
2022-08-05T04:36:44.795Z,5.95
2022-08-05T04:38:54.473Z,6.60
2022-08-05T04:41:34.068Z,6.37
2022-08-05T04:43:56.430Z,6.22
2022-08-05T04:46:28.430Z,6.45
2022-08-05T04:48:58.685Z,6.60
2022-08-05T04:51:30.490Z,6.58
2022-08-05T04:54:01.315Z,6.20
2022-08-05T04:56:35.052Z,5.75
2022-08-05T04:59:24.261Z,6.03
2022-08-05T05:02:07.230Z,5.80
2022-08-05T05:04:04.705Z,5.22
2022-08-05T05:06:39.034Z,5.25
2022-08-05T05:09:05.591Z,4.92
2022-08-05T05:11:52.895Z,5.20
2022-08-05T05:14:06.738Z,5.03
2022-08-05T05:16:37.647Z,4.77
2022-08-05T05:19:19.157Z,4.60
2022-08-05T05:21:39.872Z,4.33
2022-08-05T05:24:09.455Z,4.85
2022-08-05T05:26:39.793Z,4.67
2022-08-05T05:29:14.240Z,4.75
2022-08-05T05:34:08.563Z,4.53
2022-08-05T05:36:37.883Z,4.40
2022-08-05T05:39:10.882Z,4.28
2022-08-05T05:41:40.896Z,4.40
2022-08-05T05:44:36.007Z,4.33
2022-08-05T05:46:41.624Z,4.42
2022-08-05T05:49:22.849Z,4.47
2022-08-05T05:51:50.298Z,4.10
2022-08-05T05:54:14.854Z,3.98
2022-08-05T05:56:45.953Z,4.15
2022-08-05T05:59:16.781Z,4.00
2022-08-05T06:01:57.750Z,4.00
2022-08-05T06:04:17.134Z,3.95
2022-08-05T06:06:48.806Z,3.80
2022-08-05T06:09:25.703Z,4.03
2022-08-05T06:11:59.589Z,3.70
2022-08-05T06:14:20.027Z,4.00
2022-08-05T06:16:49.411Z,3.75
2022-08-05T06:19:26.035Z,3.90
2022-08-05T06:21:50.048Z,4.33
2022-08-05T06:24:22.520Z,4.12
2022-08-05T06:26:53.263Z,3.90
2022-08-05T06:29:48.153Z,4.05
2022-08-05T06:31:55.146Z,3.90
2022-08-05T06:34:27.705Z,3.92
2022-08-05T06:36:58.855Z,3.80
2022-08-05T06:39:28.409Z,4.35
2022-08-05T06:42:01.418Z,3.87
2022-08-05T06:44:32.838Z,3.52
2022-08-05T06:47:02.505Z,3.58
2022-08-05T06:50:01.664Z,3.10
2022-08-05T06:52:03.553Z,3.30
2022-08-05T06:54:32.858Z,2.90
2022-08-05T06:57:58.179Z,2.65
2022-08-05T06:59:38.862Z,2.70
2022-08-05T07:02:05.838Z,3.00
2022-08-05T07:04:35.146Z,2.50
2022-08-05T07:07:07.894Z,2.55
2022-08-05T07:09:37.485Z,2.42
2022-08-05T07:12:08.511Z,2.20
2022-08-05T07:14:55.691Z,2.40
2022-08-05T07:18:00.894Z,2.70
2022-08-05T07:22:30.024Z,2.00
2022-08-05T07:25:22.065Z,2.12
2022-08-05T07:27:56.686Z,2.15
2022-08-05T07:30:27.213Z,2.35
2022-08-05T07:32:39.298Z,2.22
2022-08-05T07:36:01.939Z,2.52
2022-08-05T07:37:41.617Z,2.27
2022-08-05T07:40:31.393Z,2.27
2022-08-05T07:42:44.040Z,1.90
2022-08-05T07:45:13.455Z,1.87
2022-08-05T07:47:44.464Z,1.85
2022-08-05T07:50:16.674Z,1.90
2022-08-05T07:52:46.721Z,1.77
2022-08-05T07:56:05.589Z,1.90
2022-08-05T07:58:00.447Z,1.90
2022-08-05T08:00:19.097Z,1.90
2022-08-05T08:03:13.998Z,1.85
2022-08-05T08:05:19.312Z,2.00
2022-08-05T08:07:59.508Z,1.60
2022-08-05T08:10:20.498Z,1.40
2022-08-05T08:12:50.784Z,1.30
2022-08-05T08:16:33.988Z,1.12
2022-08-05T08:17:52.985Z,1.05
2022-08-05T08:21:00.495Z,1.25
2022-08-05T08:22:56.503Z,1.10
2022-08-05T08:25:58.933Z,1.30
2022-08-05T08:27:58.706Z,1.23
2022-08-05T08:30:37.692Z,1.60
2022-08-05T08:33:04.546Z,1.20
2022-08-05T08:35:35.070Z,0.98
2022-08-05T08:38:02.152Z,1.10
2022-08-05T08:40:34.283Z,1.10
2022-08-05T08:45:21.001Z,1.00
2022-08-05T08:45:37.513Z,0.90
2022-08-05T08:48:22.679Z,0.90
2022-08-05T08:51:03.084Z,0.80
2022-08-05T08:53:13.194Z,0.90
2022-08-05T08:56:03.866Z,0.70
2022-08-05T08:58:16.847Z,0.80
2022-08-05T09:00:46.809Z,1.15
2022-08-05T09:03:19.171Z,1.00
2022-08-05T09:06:09.169Z,1.00
2022-08-05T09:08:20.717Z,1.10
2022-08-05T09:10:52.832Z,1.00
2022-08-05T09:13:23.594Z,1.10
2022-08-05T09:15:53.311Z,1.15
2022-08-05T09:18:24.563Z,0.90
2022-08-05T09:20:53.956Z,0.80
2022-08-05T09:23:27.240Z,0.80
2022-08-05T09:26:20.527Z,0.90
2022-08-05T09:28:45.960Z,0.90
2022-08-05T09:31:23.245Z,1.00
2022-08-05T09:33:50.907Z,0.88
2022-08-05T09:36:20.635Z,0.95
2022-08-05T09:39:00.623Z,0.90
2022-08-05T09:41:32.750Z,0.80
2022-08-05T09:44:03.847Z,0.70
2022-08-05T09:46:35.288Z,0.78
2022-08-05T09:49:18.763Z,0.85
2022-08-05T09:51:42.283Z,0.90
2022-08-05T09:54:12.035Z,1.20
2022-08-05T09:56:52.446Z,1.20
2022-08-05T09:59:17.594Z,1.40
2022-08-05T10:01:47.423Z,1.22
2022-08-05T10:04:17.539Z,1.20
2022-08-05T10:06:59.435Z,1.10
2022-08-05T10:09:30.144Z,1.17
2022-08-05T10:12:18.781Z,1.20
2022-08-05T10:14:42.516Z,1.20
2022-08-05T10:17:37.311Z,1.00
2022-08-05T10:20:03.739Z,0.95
2022-08-05T10:22:29.885Z,1.10
2022-08-05T10:24:50.637Z,0.90
2022-08-05T10:27:26.283Z,0.90
2022-08-05T10:30:41.080Z,0.80
2022-08-05T10:32:53.221Z,0.80
2022-08-05T10:34:55.257Z,0.85
2022-08-05T10:37:26.632Z,0.93
2022-08-05T10:40:03.375Z,0.82
2022-08-05T10:42:33.455Z,1.25
2022-08-05T10:45:00.279Z,9.83
2022-08-05T10:47:36.246Z,1.27
2022-08-05T10:50:32.977Z,0.90
2022-08-05T10:52:58.546Z,1.00
2022-08-05T10:55:26.005Z,0.85
2022-08-05T10:58:09.683Z,0.80
2022-08-05T11:00:44.099Z,0.82
2022-08-05T11:03:25.259Z,0.70
2022-08-05T11:05:50.227Z,0.70
2022-08-05T11:08:36.771Z,0.70
2022-08-05T11:11:01.031Z,0.80
2022-08-05T11:13:57.747Z,0.80
2022-08-05T11:16:33.920Z,0.72
2022-08-05T11:20:16.436Z,0.60
2022-08-05T11:22:22.607Z,0.70
2022-08-05T11:25:16.490Z,0.60
2022-08-05T11:27:50.167Z,0.70
2022-08-05T11:30:04.188Z,0.62
2022-08-05T11:32:35.070Z,0.70
2022-08-05T11:35:05.446Z,0.55
2022-08-05T11:38:37.005Z,0.60
2022-08-05T11:40:47.033Z,0.60
2022-08-05T11:44:06.061Z,0.70
2022-08-05T11:46:27.387Z,0.68
2022-08-05T11:48:25.765Z,0.60
2022-08-05T11:50:55.292Z,0.60
2022-08-05T11:53:24.730Z,0.60
2022-08-05T11:55:55.506Z,0.60
2022-08-05T11:58:40.516Z,0.93
2022-08-05T12:01:12.331Z,0.70
2022-08-05T12:03:55.482Z,0.60
2022-08-05T12:06:29.310Z,0.65
2022-08-05T12:09:00.194Z,0.60
2022-08-05T12:11:39.911Z,0.70
2022-08-05T12:14:04.607Z,0.70
2022-08-05T12:16:37.409Z,0.60
2022-08-05T12:20:27.272Z,0.60
2022-08-05T12:21:48.596Z,0.60
2022-08-05T12:24:22.479Z,0.55
2022-08-05T12:26:54.635Z,0.60
2022-08-05T12:29:29.167Z,0.57
2022-08-05T12:32:02.027Z,0.70
2022-08-05T12:34:35.740Z,0.80
2022-08-05T12:37:09.974Z,0.60
2022-08-05T12:39:41.055Z,0.60
2022-08-05T12:42:16.256Z,0.55
2022-08-05T12:44:47.531Z,0.60
2022-08-05T12:47:31.115Z,0.68
2022-08-05T12:50:03.594Z,0.68
2022-08-05T12:52:39.760Z,0.80
2022-08-05T12:55:03.551Z,0.80
2022-08-05T12:58:38.893Z,0.72
2022-08-05T13:02:00.105Z,0.80
2022-08-05T13:02:43.342Z,0.62
2022-08-05T13:05:15.045Z,0.60
2022-08-05T13:08:01.246Z,0.70
2022-08-05T13:10:19.580Z,0.50
2022-08-05T13:12:51.178Z,0.60
2022-08-05T13:15:24.326Z,0.70
2022-08-05T13:20:35.228Z,0.80
2022-08-05T13:23:07.297Z,0.70
2022-08-05T13:25:52.486Z,0.70
2022-08-05T13:28:07.881Z,0.78
2022-08-05T13:30:39.341Z,0.90
2022-08-05T13:33:08.654Z,0.80
2022-08-05T13:35:47.229Z,0.60
2022-08-05T13:38:08.889Z,0.80
2022-08-05T13:40:49.955Z,0.80
2022-08-05T13:43:12.119Z,0.90
2022-08-05T13:45:43.178Z,0.90
2022-08-05T13:49:00.202Z,0.80
2022-08-05T13:50:43.773Z,0.88
2022-08-05T13:53:15.924Z,0.60
2022-08-05T13:55:49.270Z,0.70
2022-08-05T13:58:30.983Z,0.62
2022-08-05T14:00:47.129Z,0.82
2022-08-05T14:03:16.869Z,0.72
2022-08-05T14:06:24.347Z,0.72
2022-08-05T14:08:20.800Z,0.95
2022-08-05T14:10:48.997Z,0.70
2022-08-05T14:13:18.261Z,0.70
2022-08-05T14:16:06.927Z,0.82
2022-08-05T14:18:23.381Z,0.55
2022-08-05T14:20:52.923Z,0.70
2022-08-05T14:23:25.470Z,0.85
2022-08-05T14:25:54.499Z,0.88
2022-08-05T14:28:27.119Z,0.78
2022-08-05T14:31:01.525Z,0.70
2022-08-05T14:33:59.646Z,0.90
2022-08-05T14:36:05.293Z,0.78
2022-08-05T14:38:36.253Z,0.93
2022-08-05T14:41:08.329Z,0.90
2022-08-05T14:43:59.107Z,0.70
2022-08-05T14:46:09.151Z,0.80
2022-08-05T14:48:38.466Z,0.82
2022-08-05T14:51:08.398Z,0.60
2022-08-05T14:53:44.278Z,0.75
2022-08-05T14:56:09.120Z,0.70
2022-08-05T14:58:47.494Z,0.90
2022-08-05T15:01:15.998Z,0.87
2022-08-05T15:03:42.669Z,0.98
2022-08-05T15:06:15.751Z,0.70
2022-08-05T15:08:57.990Z,1.00
2022-08-05T15:11:17.135Z,0.90
2022-08-05T15:13:50.291Z,0.75
2022-08-05T15:16:17.436Z,1.07
2022-08-05T15:18:47.181Z,1.02
2022-08-05T15:21:20.953Z,0.90
2022-08-05T15:23:47.599Z,0.80
2022-08-05T15:26:32.081Z,0.70
2022-08-05T15:28:48.682Z,0.80
2022-08-05T15:31:19.655Z,1.12
2022-08-05T15:34:04.355Z,1.10
2022-08-05T15:36:24.153Z,1.00
2022-08-05T15:40:58.661Z,0.80
2022-08-05T15:41:26.010Z,0.82
2022-08-05T15:43:57.184Z,0.80
2022-08-05T15:46:26.663Z,1.00
2022-08-05T15:48:58.827Z,0.95
2022-08-05T15:52:04.510Z,0.90
2022-08-05T15:53:59.380Z,1.10
2022-08-05T15:56:30.602Z,1.10
2022-08-05T15:59:00.287Z,0.93
2022-08-05T16:01:29.738Z,0.90
2022-08-05T16:04:00.663Z,1.17
2022-08-05T16:06:29.925Z,1.30
2022-08-05T16:08:59.525Z,1.20
2022-08-05T16:11:43.167Z,1.10
2022-08-05T16:14:00.097Z,1.05
2022-08-05T16:16:30.088Z,1.00
2022-08-05T16:18:59.718Z,1.00
2022-08-05T16:21:58.877Z,1.05
2022-08-05T16:24:03.698Z,1.02
2022-08-05T16:26:31.765Z,0.80
2022-08-05T16:29:01.542Z,1.15
2022-08-05T16:31:56.416Z,1.10
2022-08-05T16:34:01.844Z,1.10
2022-08-05T16:36:31.727Z,1.22
2022-08-05T16:39:02.077Z,1.82
2022-08-05T16:42:14.415Z,1.20
2022-08-05T16:44:02.427Z,1.15
2022-08-05T16:46:31.818Z,1.20
2022-08-05T16:49:01.524Z,1.22
2022-08-05T16:51:42.692Z,1.02
2022-08-05T16:54:16.060Z,1.25
2022-08-05T16:56:34.671Z,1.20
2022-08-05T16:59:09.122Z,1.37
2022-08-05T17:01:52.967Z,1.22
2022-08-05T17:04:10.226Z,1.30
2022-08-05T17:06:41.972Z,1.30
2022-08-05T17:09:10.684Z,1.20
2022-08-05T17:11:49.002Z,1.07
2022-08-05T17:14:12.981Z,1.30
2022-08-05T17:16:42.454Z,1.30
2022-08-05T17:19:11.701Z,1.20
2022-08-05T17:21:41.121Z,1.15
2022-08-05T17:24:30.312Z,1.35
2022-08-05T17:26:43.072Z,1.12
2022-08-05T17:29:12.472Z,1.17
2022-08-05T17:31:58.328Z,1.30
2022-08-05T17:34:18.065Z,1.05
2022-08-05T17:36:44.659Z,1.40
2022-08-05T17:39:24.242Z,1.22
2022-08-05T17:42:20.372Z,1.15
2022-08-05T17:44:16.591Z,1.10
2022-08-05T17:46:45.879Z,1.22
2022-08-05T17:49:15.960Z,1.10
2022-08-05T17:51:45.961Z,1.12
2022-08-05T17:54:17.179Z,1.30
2022-08-05T17:56:49.142Z,1.37
2022-08-05T17:59:20.844Z,1.05
2022-08-05T18:01:50.645Z,1.22
2022-08-05T18:04:21.489Z,1.00
2022-08-05T18:06:51.100Z,1.22
2022-08-05T18:09:22.296Z,1.10
2022-08-05T18:11:53.441Z,1.30
2022-08-05T18:14:22.698Z,1.10
2022-08-05T18:16:53.390Z,1.10
2022-08-05T18:19:25.936Z,1.20
2022-08-05T18:22:08.567Z,1.00
2022-08-05T18:24:24.973Z,1.30
2022-08-05T18:26:55.929Z,1.10
2022-08-05T18:29:40.331Z,1.05
2022-08-05T18:31:57.978Z,1.57
2022-08-05T18:34:39.683Z,1.12
2022-08-05T18:36:58.206Z,1.50
2022-08-05T18:40:29.397Z,1.37
2022-08-05T18:42:05.053Z,1.22
2022-08-05T18:44:34.810Z,1.50
2022-08-05T18:49:58.238Z,1.57
2022-08-05T18:52:39.511Z,1.20
2022-08-05T18:55:10.978Z,1.27
2022-08-05T18:57:50.037Z,1.40
2022-08-05T19:00:20.094Z,1.35
2022-08-05T19:02:44.330Z,0.83
2022-08-05T19:06:06.103Z,1.27
2022-08-05T19:07:48.260Z,1.40
2022-08-05T19:10:26.513Z,1.15
2022-08-05T19:12:50.936Z,1.10
2022-08-05T19:15:57.103Z,1.10
2022-08-05T19:18:08.532Z,1.20
2022-08-05T19:20:22.115Z,1.50
2022-08-05T19:22:53.564Z,1.32
2022-08-05T19:25:29.801Z,1.17
2022-08-05T19:27:54.285Z,1.55
2022-08-05T19:30:23.806Z,1.27
2022-08-05T19:32:53.186Z,1.42
2022-08-05T19:35:22.770Z,1.50
2022-08-05T19:38:05.974Z,1.20
2022-08-05T19:40:24.362Z,1.10
2022-08-05T19:43:04.914Z,1.10
2022-08-05T19:45:25.645Z,1.25
2022-08-05T19:47:55.831Z,1.30
2022-08-05T19:50:25.244Z,1.15
2022-08-05T19:52:54.548Z,1.25
2022-08-05T19:56:14.124Z,1.50
2022-08-05T19:58:07.117Z,2.17
2022-08-05T20:00:25.906Z,1.30
2022-08-05T20:02:55.172Z,1.37
2022-08-05T20:05:25.910Z,1.40
2022-08-05T20:07:59.128Z,1.47
2022-08-05T20:10:27.837Z,1.40
2022-08-05T20:12:58.332Z,1.60
2022-08-05T20:15:52.597Z,1.22
2022-08-05T20:20:35.079Z,1.35
2022-08-05T20:23:04.486Z,1.37
2022-08-05T20:25:39.840Z,1.57
2022-08-05T20:28:13.835Z,1.72
2022-08-05T20:30:39.548Z,1.30
2022-08-05T20:33:10.516Z,1.50
2022-08-05T20:35:40.687Z,1.37
2022-08-05T20:38:10.868Z,1.60
2022-08-05T20:40:43.312Z,1.40
2022-08-05T20:43:12.584Z,1.50
2022-08-05T20:45:56.448Z,1.70
2022-08-05T20:48:16.623Z,1.57
2022-08-05T20:50:45.232Z,1.65
2022-08-05T20:53:36.961Z,1.42
2022-08-05T20:56:07.205Z,1.60
2022-08-05T20:58:17.907Z,1.42
2022-08-05T21:00:54.629Z,1.60
2022-08-05T21:03:20.991Z,1.80
2022-08-05T21:05:54.545Z,2.00
2022-08-05T21:08:21.287Z,1.60
2022-08-05T21:10:52.546Z,1.90
2022-08-05T21:13:48.411Z,1.90
2022-08-05T21:15:54.511Z,1.80
2022-08-05T21:18:24.885Z,1.75
2022-08-05T21:20:55.657Z,1.55
2022-08-05T21:23:25.069Z,1.57
2022-08-05T21:25:55.379Z,1.47
2022-08-05T21:28:30.611Z,1.47
2022-08-05T21:30:55.777Z,1.77
2022-08-05T21:33:26.224Z,1.80
2022-08-05T21:35:58.938Z,1.60
2022-08-05T21:38:28.890Z,1.80
2022-08-05T21:40:58.305Z,1.70
2022-08-05T21:43:27.595Z,1.92
2022-08-05T21:46:00.582Z,1.57
2022-08-05T21:48:31.855Z,1.55
2022-08-05T21:51:01.285Z,1.40
2022-08-05T21:53:30.555Z,1.77
2022-08-05T21:56:06.565Z,1.72
2022-08-05T21:58:34.512Z,1.85
2022-08-05T22:01:06.146Z,1.70
2022-08-05T22:03:52.630Z,1.85
2022-08-05T22:06:08.273Z,1.65
2022-08-05T22:08:37.657Z,2.35
2022-08-05T22:11:09.076Z,1.60
2022-08-05T22:14:05.944Z,1.85
2022-08-05T22:16:40.448Z,1.95
2022-08-05T22:18:42.723Z,1.80
2022-08-05T22:21:18.951Z,1.90
2022-08-05T22:24:12.895Z,1.77
2022-08-05T22:26:51.808Z,1.70
2022-08-05T22:29:26.244Z,1.80
2022-08-05T22:31:55.231Z,1.80
2022-08-05T22:34:28.326Z,1.90
2022-08-05T22:36:54.432Z,2.20
2022-08-05T22:39:23.857Z,1.65
2022-08-05T22:42:10.472Z,1.60
2022-08-05T22:44:24.120Z,1.52
2022-08-05T22:46:54.646Z,1.70
2022-08-05T22:50:19.553Z,1.80
2022-08-05T22:52:05.105Z,1.62
2022-08-05T22:54:26.676Z,1.77
2022-08-05T22:56:57.217Z,1.80
2022-08-05T22:59:42.584Z,2.05
2022-08-05T23:02:05.478Z,1.85
2022-08-05T23:04:28.611Z,2.12
2022-08-05T23:06:57.978Z,1.85
2022-08-05T23:09:57.095Z,2.00
2022-08-05T23:11:58.655Z,1.60
2022-08-05T23:14:32.240Z,1.62
2022-08-05T23:17:18.694Z,1.65
2022-08-05T23:19:51.159Z,1.72
2022-08-05T23:22:27.150Z,1.90
2022-08-05T23:24:53.240Z,1.67
2022-08-05T23:27:22.876Z,1.72
2022-08-05T23:29:54.084Z,1.80
2022-08-05T23:32:24.371Z,1.70
2022-08-05T23:34:56.050Z,1.65
2022-08-05T23:37:26.608Z,1.70
2022-08-05T23:39:56.688Z,1.55
2022-08-05T23:42:29.334Z,1.80
2022-08-05T23:44:57.755Z,1.60
2022-08-05T23:47:26.987Z,1.95
2022-08-05T23:49:56.563Z,1.90
2022-08-05T23:52:36.024Z,2.00
2022-08-05T23:55:08.992Z,2.47
2022-08-05T23:57:38.591Z,1.70
